CYFS

Fort Simpson Airport

Fort Simpson, Northwest Territories, Canada
METAR CYFS 120900Z 31011KT 4SM -SN DRSN OVC030 M10/M12 A2892 RMK SC8 SLP810
Observed Flight Rules
Dec-12 @ 09:00 UTC (44 minutes ago) Marginal Visual Flight Rules
Wind Visibility Clouds Conditions
310° at 11 knots 4 miles
  • Overcast at 3,000' AGL
  • Light Snow
  • Low drifting
  • Snow
Temperatures Readings
Current -10°C / 14°F
Dewpoint -12°C / 10°F
Humidity 85%
Altimeter 28.92" Hg
Pressure 981 hPa
Elevation 169
METAR CYFS 120900Z 31011KT 4SM -SN DRSN OVC030 M10/M12 A2892 RMK SC8 SLP810
Observed Flight Rules
Dec-12 @ 09:00 UTC
(44 minutes ago)
MVFR
Wind Visibility
310° at 11 knots 4 miles
Clouds
  • Overcast at 3,000' AGL
Conditions
  • Light Snow
  • Low drifting
  • Snow
Temperature Dewpoint
-10°C / 14°F -12°C / 10°F
Humidity Altimeter Pressure
85% 28.92" Hg 981 hPa